sensor_id;sensor_type;location;lat;lon;timestamp;pressure;altitude;pressure_sealevel;temperature;humidity
13314;BME280;6725;48.112;11.604;2023-03-31T00:02:22;93839.66;;;8.33;100.00
13314;BME280;6725;48.112;11.604;2023-03-31T00:04:48;93838.47;;;8.34;100.00
13314;BME280;6725;48.112;11.604;2023-03-31T00:07:18;93829.13;;;8.35;100.00
13314;BME280;6725;48.112;11.604;2023-03-31T00:09:49;93827.09;;;8.39;100.00
13314;BME280;6725;48.112;11.604;2023-03-31T00:12:19;93836.66;;;8.44;100.00
13314;BME280;6725;48.112;11.604;2023-03-31T00:14:45;93826.91;;;8.46;100.00
13314;BME280;6725;48.112;11.604;2023-03-31T00:17:10;93822.13;;;8.50;100.00
13314;BME280;6725;48.112;11.604;2023-03-31T00:19:36;93827.59;;;8.50;100.00
13314;BME280;6725;48.112;11.604;2023-03-31T00:22:04;93826.03;;;8.49;100.00
13314;BME280;6725;48.112;11.604;2023-03-31T00:24:30;93826.47;;;8.48;100.00
13314;BME280;6725;48.112;11.604;2023-03-31T00:26:58;93832.78;;;8.45;100.00
13314;BME280;6725;48.112;11.604;2023-03-31T00:29:24;93827.09;;;8.39;100.00
13314;BME280;6725;48.112;11.604;2023-03-31T00:31:50;93820.88;;;8.39;100.00
13314;BME280;6725;48.112;11.604;2023-03-31T00:34:15;93826.75;;;8.37;100.00
13314;BME280;6725;48.112;11.604;2023-03-31T00:36:40;93822.81;;;8.38;100.00
13314;BME280;6725;48.112;11.604;2023-03-31T00:39:13;93822.06;;;8.38;100.00
13314;BME280;6725;48.112;11.604;2023-03-31T00:41:39;93812.47;;;8.33;100.00
13314;BME280;6725;48.112;11.604;2023-03-31T00:46:54;93812.28;;;8.40;100.00
13314;BME280;6725;48.112;11.604;2023-03-31T00:52:21;93784.16;;;8.15;100.00
13314;BME280;6725;48.112;11.604;2023-03-31T00:54:51;93772.84;;;8.16;100.00
13314;BME280;6725;48.112;11.604;2023-03-31T00:57:19;93766.25;;;8.17;100.00
13314;BME280;6725;48.112;11.604;2023-03-31T00:59:51;93763.19;;;8.15;100.00
13314;BME280;6725;48.112;11.604;2023-03-31T01:02:17;93756.13;;;8.18;100.00
13314;BME280;6725;48.112;11.604;2023-03-31T01:04:51;93748.25;;;8.23;100.00
13314;BME280;6725;48.112;11.604;2023-03-31T01:07:24;93742.06;;;8.23;100.00
13314;BME280;6725;48.112;11.604;2023-03-31T01:09:52;93736.50;;;8.26;100.00
13314;BME280;6725;48.112;11.604;2023-03-31T01:12:21;93728.69;;;8.28;100.00
13314;BME280;6725;48.112;11.604;2023-03-31T01:14:48;93721.22;;;8.32;100.00
13314;BME280;6725;48.112;11.604;2023-03-31T01:17:14;93709.91;;;8.34;100.00
13314;BME280;6725;48.112;11.604;2023-03-31T01:22:53;93704.13;;;8.32;100.00
13314;BME280;6725;48.112;11.604;2023-03-31T01:26:05;93699.88;;;8.31;100.00
13314;BME280;6725;48.112;11.604;2023-03-31T01:45:21;93677.16;;;8.09;100.00
13314;BME280;6725;48.112;11.604;2023-03-31T01:47:54;93672.03;;;8.11;100.00
13314;BME280;6725;48.112;11.604;2023-03-31T01:50:27;93662.47;;;8.06;100.00
13314;BME280;6725;48.112;11.604;2023-03-31T01:58:35;93640.53;;;8.13;100.00
13314;BME280;6725;48.112;11.604;2023-03-31T02:01:16;93635.75;;;8.17;100.00
13314;BME280;6725;48.112;11.604;2023-03-31T02:04:02;93621.66;;;8.22;100.00
13314;BME280;6725;48.112;11.604;2023-03-31T02:06:34;93616.88;;;8.26;100.00
13314;BME280;6725;48.112;11.604;2023-03-31T02:09:05;93620.78;;;8.25;100.00
13314;BME280;6725;48.112;11.604;2023-03-31T02:11:33;93616.78;;;8.30;100.00
13314;BME280;6725;48.112;11.604;2023-03-31T02:14:01;93616.88;;;8.26;100.00
13314;BME280;6725;48.112;11.604;2023-03-31T02:16:31;93637.78;;;8.29;100.00
13314;BME280;6725;48.112;11.604;2023-03-31T02:19:03;93634.19;;;8.32;100.00
13314;BME280;6725;48.112;11.604;2023-03-31T02:21:36;93639.63;;;8.32;100.00
13314;BME280;6725;48.112;11.604;2023-03-31T02:24:10;93653.03;;;8.39;100.00
13314;BME280;6725;48.112;11.604;2023-03-31T02:26:41;93656.72;;;8.45;100.00
13314;BME280;6725;48.112;11.604;2023-03-31T02:29:08;93680.03;;;8.46;100.00
13314;BME280;6725;48.112;11.604;2023-03-31T02:31:51;93702.47;;;8.50;100.00
13314;BME280;6725;48.112;11.604;2023-03-31T02:34:20;93741.19;;;8.54;100.00
13314;BME280;6725;48.112;11.604;2023-03-31T02:36:46;93767.88;;;8.59;100.00
13314;BME280;6725;48.112;11.604;2023-03-31T02:39:16;93802.03;;;8.60;100.00
13314;BME280;6725;48.112;11.604;2023-03-31T02:41:44;93828.75;;;8.65;100.00
13314;BME280;6725;48.112;11.604;2023-03-31T02:44:10;93871.41;;;8.68;100.00
13314;BME280;6725;48.112;11.604;2023-03-31T02:46:36;93900.06;;;8.73;100.00
13314;BME280;6725;48.112;11.604;2023-03-31T02:49:04;93944.25;;;8.77;100.00
13314;BME280;6725;48.112;11.604;2023-03-31T02:51:48;93974.13;;;8.80;100.00
13314;BME280;6725;48.112;11.604;2023-03-31T02:54:39;94049.34;;;8.90;100.00
13314;BME280;6725;48.112;11.604;2023-03-31T03:06:02;94125.81;;;8.96;100.00
13314;BME280;6725;48.112;11.604;2023-03-31T03:11:27;94129.63;;;8.98;100.00
13314;BME280;6725;48.112;11.604;2023-03-31T03:14:23;94114.50;;;8.97;100.00
13314;BME280;6725;48.112;11.604;2023-03-31T03:16:59;94105.13;;;8.98;100.00
13314;BME280;6725;48.112;11.604;2023-03-31T03:19:26;94093.03;;;8.99;100.00
13314;BME280;6725;48.112;11.604;2023-03-31T03:21:51;94079.84;;;8.98;100.00
13314;BME280;6725;48.112;11.604;2023-03-31T03:24:17;94050.34;;;8.96;100.00
13314;BME280;6725;48.112;11.604;2023-03-31T03:26:45;94018.88;;;8.95;100.00
13314;BME280;6725;48.112;11.604;2023-03-31T03:29:12;93992.84;;;8.94;100.00
13314;BME280;6725;48.112;11.604;2023-03-31T03:31:39;93965.25;;;8.92;100.00
13314;BME280;6725;48.112;11.604;2023-03-31T03:34:05;93948.25;;;8.88;100.00
13314;BME280;6725;48.112;11.604;2023-03-31T03:36:31;93918.44;;;8.85;100.00
13314;BME280;6725;48.112;11.604;2023-03-31T03:38:57;93889.66;;;8.84;100.00
13314;BME280;6725;48.112;11.604;2023-03-31T03:41:22;93857.84;;;8.81;100.00
13314;BME280;6725;48.112;11.604;2023-03-31T03:43:48;93825.97;;;8.81;100.00
13314;BME280;6725;48.112;11.604;2023-03-31T03:46:13;93776.97;;;8.81;100.00
13314;BME280;6725;48.112;11.604;2023-03-31T03:48:38;93744.31;;;8.81;100.00
13314;BME280;6725;48.112;11.604;2023-03-31T03:51:04;93704.69;;;8.80;100.00
13314;BME280;6725;48.112;11.604;2023-03-31T03:53:30;93661.25;;;8.77;100.00
13314;BME280;6725;48.112;11.604;2023-03-31T03:55:55;93622.41;;;8.76;100.00
13314;BME280;6725;48.112;11.604;2023-03-31T03:58:23;93629.47;;;8.74;100.00
13314;BME280;6725;48.112;11.604;2023-03-31T04:00:48;93568.72;;;8.77;100.00
13314;BME280;6725;48.112;11.604;2023-03-31T04:03:14;93521.28;;;8.78;100.00
13314;BME280;6725;48.112;11.604;2023-03-31T04:05:40;93489.38;;;8.78;100.00
13314;BME280;6725;48.112;11.604;2023-03-31T04:08:06;93437.66;;;8.78;100.00
13314;BME280;6725;48.112;11.604;2023-03-31T04:10:33;93407.72;;;8.78;100.00
13314;BME280;6725;48.112;11.604;2023-03-31T04:12:58;93381.28;;;8.79;100.00
13314;BME280;6725;48.112;11.604;2023-03-31T04:15:26;93361.47;;;8.78;100.00
13314;BME280;6725;48.112;11.604;2023-03-31T04:17:52;93326.97;;;8.75;100.00
13314;BME280;6725;48.112;11.604;2023-03-31T04:20:20;93307.28;;;8.71;100.00
13314;BME280;6725;48.112;11.604;2023-03-31T04:22:46;93303.06;;;8.70;100.00
13314;BME280;6725;48.112;11.604;2023-03-31T04:25:15;93284.03;;;8.70;100.00
13314;BME280;6725;48.112;11.604;2023-03-31T04:27:48;93265.75;;;8.71;100.00
13314;BME280;6725;48.112;11.604;2023-03-31T04:30:25;93244.72;;;8.71;100.00
13314;BME280;6725;48.112;11.604;2023-03-31T04:32:56;93239.28;;;8.71;100.00
13314;BME280;6725;48.112;11.604;2023-03-31T04:35:24;93215.13;;;8.73;100.00
13314;BME280;6725;48.112;11.604;2023-03-31T04:37:51;93206.50;;;8.75;100.00
13314;BME280;6725;48.112;11.604;2023-03-31T04:40:24;93195.19;;;8.76;100.00
13314;BME280;6725;48.112;11.604;2023-03-31T04:42:49;93178.84;;;8.76;100.00
13314;BME280;6725;48.112;11.604;2023-03-31T04:45:16;93170.38;;;8.74;100.00
13314;BME280;6725;48.112;11.604;2023-03-31T04:47:41;93167.03;;;8.70;100.00
13314;BME280;6725;48.112;11.604;2023-03-31T04:50:08;93184.81;;;8.62;100.00
13314;BME280;6725;48.112;11.604;2023-03-31T04:52:34;93358.53;;;8.51;100.00
13314;BME280;6725;48.112;11.604;2023-03-31T04:55:00;93352.88;;;8.46;100.00
13314;BME280;6725;48.112;11.604;2023-03-31T04:57:25;93342.25;;;8.39;100.00
13314;BME280;6725;48.112;11.604;2023-03-31T04:59:50;93328.09;;;8.31;100.00
13314;BME280;6725;48.112;11.604;2023-03-31T05:02:16;93295.47;;;8.31;100.00
13314;BME280;6725;48.112;11.604;2023-03-31T05:04:47;93280.06;;;8.28;100.00
13314;BME280;6725;48.112;11.604;2023-03-31T05:07:13;93257.22;;;8.26;100.00
13314;BME280;6725;48.112;11.604;2023-03-31T05:09:38;93241.81;;;8.23;100.00
13314;BME280;6725;48.112;11.604;2023-03-31T05:12:03;93220.91;;;8.20;100.00
13314;BME280;6725;48.112;11.604;2023-03-31T05:14:29;93216.56;;;8.22;100.00
13314;BME280;6725;48.112;11.604;2023-03-31T05:16:55;93193.59;;;8.23;100.00
13314;BME280;6725;48.112;11.604;2023-03-31T05:19:22;93199.38;;;8.25;100.00
13314;BME280;6725;48.112;11.604;2023-03-31T05:21:47;93223.06;;;8.25;100.00
13314;BME280;6725;48.112;11.604;2023-03-31T05:24:13;93223.41;;;8.27;100.00
13314;BME280;6725;48.112;11.604;2023-03-31T05:26:38;93188.50;;;8.25;100.00
13314;BME280;6725;48.112;11.604;2023-03-31T05:29:05;93185.16;;;8.21;100.00
13314;BME280;6725;48.112;11.604;2023-03-31T05:31:31;93163.41;;;8.21;100.00
13314;BME280;6725;48.112;11.604;2023-03-31T05:33:56;93154.81;;;8.23;100.00
13314;BME280;6725;48.112;11.604;2023-03-31T05:36:22;93136.84;;;8.25;100.00
13314;BME280;6725;48.112;11.604;2023-03-31T05:38:47;93129.00;;;8.27;100.00
13314;BME280;6725;48.112;11.604;2023-03-31T05:41:13;93110.41;;;8.26;100.00
13314;BME280;6725;48.112;11.604;2023-03-31T05:43:41;93000.78;;;8.29;100.00
13314;BME280;6725;48.112;11.604;2023-03-31T05:46:07;92996.72;;;8.33;100.00
13314;BME280;6725;48.112;11.604;2023-03-31T05:48:33;92983.28;;;8.39;100.00
13314;BME280;6725;48.112;11.604;2023-03-31T05:50:59;92964.44;;;8.44;100.00
13314;BME280;6725;48.112;11.604;2023-03-31T05:53:25;92952.50;;;8.51;100.00
13314;BME280;6725;48.112;11.604;2023-03-31T05:55:59;92946.03;;;8.57;100.00
13314;BME280;6725;48.112;11.604;2023-03-31T05:58:26;92929.13;;;8.62;100.00
13314;BME280;6725;48.112;11.604;2023-03-31T06:03:34;92851.75;;;8.63;100.00
13314;BME280;6725;48.112;11.604;2023-03-31T06:05:59;92850.84;;;8.66;100.00
13314;BME280;6725;48.112;11.604;2023-03-31T06:08:27;92834.06;;;8.77;100.00
13314;BME280;6725;48.112;11.604;2023-03-31T06:10:52;92818.78;;;8.97;100.00
13314;BME280;6725;48.112;11.604;2023-03-31T06:13:18;92823.31;;;9.09;100.00
13314;BME280;6725;48.112;11.604;2023-03-31T06:15:52;92808.25;;;9.32;100.00
13314;BME280;6725;48.112;11.604;2023-03-31T06:18:17;92798.13;;;9.41;100.00
13314;BME280;6725;48.112;11.604;2023-03-31T06:20:42;92800.72;;;9.36;100.00
13314;BME280;6725;48.112;11.604;2023-03-31T06:23:08;92786.66;;;9.28;100.00
13314;BME280;6725;48.112;11.604;2023-03-31T06:25:36;92788.50;;;9.13;100.00
13314;BME280;6725;48.112;11.604;2023-03-31T06:28:02;92791.38;;;9.10;100.00
13314;BME280;6725;48.112;11.604;2023-03-31T06:30:28;92790.47;;;9.13;100.00
13314;BME280;6725;48.112;11.604;2023-03-31T06:32:53;92790.47;;;9.13;100.00
13314;BME280;6725;48.112;11.604;2023-03-31T06:35:18;92785.47;;;9.20;100.00
13314;BME280;6725;48.112;11.604;2023-03-31T06:37:44;92787.09;;;9.27;100.00
13314;BME280;6725;48.112;11.604;2023-03-31T06:40:09;92789.69;;;9.30;100.00
13314;BME280;6725;48.112;11.604;2023-03-31T06:42:35;92795.41;;;9.41;100.00
13314;BME280;6725;48.112;11.604;2023-03-31T06:45:00;92801.09;;;9.52;100.00
13314;BME280;6725;48.112;11.604;2023-03-31T06:47:25;92786.06;;;9.66;100.00
13314;BME280;6725;48.112;11.604;2023-03-31T06:49:51;92777.13;;;10.22;100.00
13314;BME280;6725;48.112;11.604;2023-03-31T06:52:16;92788.56;;;10.58;100.00
13314;BME280;6725;48.112;11.604;2023-03-31T06:54:41;92821.47;;;10.55;100.00
13314;BME280;6725;48.112;11.604;2023-03-31T06:57:07;92890.22;;;10.44;100.00
13314;BME280;6725;48.112;11.604;2023-03-31T06:59:32;92948.03;;;10.25;100.00
13314;BME280;6725;48.112;11.604;2023-03-31T07:01:58;92971.44;;;10.07;100.00
13314;BME280;6725;48.112;11.604;2023-03-31T07:04:23;92994.44;;;10.06;100.00
13314;BME280;6725;48.112;11.604;2023-03-31T07:06:48;92982.38;;;9.89;100.00
13314;BME280;6725;48.112;11.604;2023-03-31T07:09:14;92992.03;;;9.81;100.00
13314;BME280;6725;48.112;11.604;2023-03-31T07:11:39;93015.66;;;9.84;100.00
13314;BME280;6725;48.112;11.604;2023-03-31T07:14:05;93057.16;;;9.88;100.00
13314;BME280;6725;48.112;11.604;2023-03-31T07:16:30;93072.78;;;9.88;100.00
13314;BME280;6725;48.112;11.604;2023-03-31T07:18:57;93063.53;;;9.85;100.00
13314;BME280;6725;48.112;11.604;2023-03-31T07:21:24;93072.63;;;9.64;100.00
13314;BME280;6725;48.112;11.604;2023-03-31T07:23:49;93096.25;;;9.67;100.00
13314;BME280;6725;48.112;11.604;2023-03-31T07:26:15;93079.88;;;9.67;100.00
13314;BME280;6725;48.112;11.604;2023-03-31T07:28:40;93096.97;;;9.50;100.00
13314;BME280;6725;48.112;11.604;2023-03-31T07:31:13;93094.41;;;9.55;100.00
13314;BME280;6725;48.112;11.604;2023-03-31T07:33:38;93084.75;;;9.63;100.00
13314;BME280;6725;48.112;11.604;2023-03-31T07:36:05;93090.78;;;9.67;100.00
13314;BME280;6725;48.112;11.604;2023-03-31T07:38:31;93082.91;;;9.69;100.00
13314;BME280;6725;48.112;11.604;2023-03-31T07:40:56;93080.78;;;9.64;100.00
13314;BME280;6725;48.112;11.604;2023-03-31T07:43:21;93035.97;;;9.65;100.00
13314;BME280;6725;48.112;11.604;2023-03-31T07:45:47;93022.66;;;9.58;100.00
13314;BME280;6725;48.112;11.604;2023-03-31T07:48:12;93012.66;;;9.64;100.00
13314;BME280;6725;48.112;11.604;2023-03-31T07:50:38;93009.03;;;9.67;100.00
13314;BME280;6725;48.112;11.604;2023-03-31T07:53:04;93038.69;;;9.65;100.00
13314;BME280;6725;48.112;11.604;2023-03-31T07:55:29;93086.53;;;9.66;100.00
13314;BME280;6725;48.112;11.604;2023-03-31T07:57:55;93088.06;;;9.67;100.00
13314;BME280;6725;48.112;11.604;2023-03-31T08:00:21;93069.28;;;9.69;100.00
13314;BME280;6725;48.112;11.604;2023-03-31T08:02:46;93061.69;;;9.55;100.00
13314;BME280;6725;48.112;11.604;2023-03-31T08:05:13;93063.84;;;9.60;100.00
13314;BME280;6725;48.112;11.604;2023-03-31T08:07:41;93022.22;;;9.69;100.00
13314;BME280;6725;48.112;11.604;2023-03-31T08:10:11;93015.69;;;9.75;100.00
13314;BME280;6725;48.112;11.604;2023-03-31T08:12:37;92992.03;;;9.81;100.00
13314;BME280;6725;48.112;11.604;2023-03-31T08:15:03;93005.38;;;9.88;100.00
13314;BME280;6725;48.112;11.604;2023-03-31T08:17:28;93012.34;;;9.80;100.00
13314;BME280;6725;48.112;11.604;2023-03-31T08:19:53;93016.75;;;9.78;100.00
13314;BME280;6725;48.112;11.604;2023-03-31T08:22:19;92992.97;;;9.69;100.00
13314;BME280;6725;48.112;11.604;2023-03-31T08:24:45;93002.81;;;9.67;100.00
13314;BME280;6725;48.112;11.604;2023-03-31T08:27:11;93016.31;;;9.61;100.00
13314;BME280;6725;48.112;11.604;2023-03-31T08:29:36;93003.28;;;9.74;100.00
13314;BME280;6725;48.112;11.604;2023-03-31T08:32:01;93000.56;;;9.74;100.00
13314;BME280;6725;48.112;11.604;2023-03-31T08:34:27;92996.91;;;9.77;100.00
13314;BME280;6725;48.112;11.604;2023-03-31T08:36:52;92995.69;;;9.87;100.00
13314;BME280;6725;48.112;11.604;2023-03-31T08:39:18;92988.25;;;9.97;100.00
13314;BME280;6725;48.112;11.604;2023-03-31T08:42:03;92993.13;;;9.84;100.00
13314;BME280;6725;48.112;11.604;2023-03-31T08:44:37;93015.53;;;9.79;100.00
13314;BME280;6725;48.112;11.604;2023-03-31T08:47:11;93019.63;;;9.83;100.00
13314;BME280;6725;48.112;11.604;2023-03-31T08:49:43;93027.34;;;9.76;100.00
13314;BME280;6725;48.112;11.604;2023-03-31T08:52:31;93057.16;;;9.79;100.00
13314;BME280;6725;48.112;11.604;2023-03-31T08:55:01;93067.47;;;9.84;100.00
13314;BME280;6725;48.112;11.604;2023-03-31T08:57:37;93055.22;;;9.80;100.00
13314;BME280;6725;48.112;11.604;2023-03-31T09:00:08;93078.06;;;9.91;100.00
13314;BME280;6725;48.112;11.604;2023-03-31T09:03:01;93108.66;;;10.04;100.00
13314;BME280;6725;48.112;11.604;2023-03-31T09:08:33;93031.03;;;10.33;100.00
13314;BME280;6725;48.112;11.604;2023-03-31T09:18:59;93118.75;;;10.58;100.00
13314;BME280;6725;48.112;11.604;2023-03-31T09:21:29;93148.91;;;10.64;100.00
13314;BME280;6725;48.112;11.604;2023-03-31T09:24:09;93198.31;;;10.93;100.00
13314;BME280;6725;48.112;11.604;2023-03-31T09:26:50;93209.97;;;11.44;100.00
13314;BME280;6725;48.112;11.604;2023-03-31T09:29:30;93283.72;;;12.03;100.00
13314;BME280;6725;48.112;11.604;2023-03-31T09:32:14;93422.13;;;13.31;100.00
13314;BME280;6725;48.112;11.604;2023-03-31T09:34:40;93638.41;;;14.70;100.00
13314;BME280;6725;48.112;11.604;2023-03-31T09:37:05;93842.22;;;16.26;100.00
13314;BME280;6725;48.112;11.604;2023-03-31T09:39:32;94026.09;;;16.02;100.00
13314;BME280;6725;48.112;11.604;2023-03-31T09:41:58;94081.16;;;16.02;100.00
13314;BME280;6725;48.112;11.604;2023-03-31T09:44:27;94108.91;;;15.66;100.00
13314;BME280;6725;48.112;11.604;2023-03-31T09:46:58;94112.13;;;15.65;100.00
13314;BME280;6725;48.112;11.604;2023-03-31T09:49:27;94107.53;;;16.42;100.00
13314;BME280;6725;48.112;11.604;2023-03-31T09:52:11;94115.19;;;17.19;100.00
13314;BME280;6725;48.112;11.604;2023-03-31T09:54:43;94144.16;;;16.57;100.00
13314;BME280;6725;48.112;11.604;2023-03-31T09:57:14;94144.41;;;15.64;100.00
13314;BME280;6725;48.112;11.604;2023-03-31T09:59:40;94144.13;;;15.03;100.00
13314;BME280;6725;48.112;11.604;2023-03-31T10:02:47;94131.16;;;14.94;100.00
13314;BME280;6725;48.112;11.604;2023-03-31T10:05:38;94128.69;;;15.14;100.00
13314;BME280;6725;48.112;11.604;2023-03-31T10:10:55;94131.13;;;15.12;100.00
13314;BME280;6725;48.112;11.604;2023-03-31T10:13:23;94129.66;;;14.93;100.00
13314;BME280;6725;48.112;11.604;2023-03-31T10:15:54;94117.81;;;15.11;100.00
13314;BME280;6725;48.112;11.604;2023-03-31T10:18:32;94110.28;;;15.29;100.00
13314;BME280;6725;48.112;11.604;2023-03-31T10:20:59;94104.31;;;15.96;100.00
13314;BME280;6725;48.112;11.604;2023-03-31T10:23:30;94108.22;;;15.80;100.00
13314;BME280;6725;48.112;11.604;2023-03-31T10:25:57;94114.66;;;15.77;100.00
13314;BME280;6725;48.112;11.604;2023-03-31T10:28:23;94109.97;;;15.27;100.00
13314;BME280;6725;48.112;11.604;2023-03-31T10:30:55;94106.50;;;15.18;100.00
13314;BME280;6725;48.112;11.604;2023-03-31T10:33:24;94090.19;;;15.14;100.00
13314;BME280;6725;48.112;11.604;2023-03-31T10:35:55;94075.91;;;16.28;100.00
13314;BME280;6725;48.112;11.604;2023-03-31T10:38:30;94084.66;;;17.72;100.00
13314;BME280;6725;48.112;11.604;2023-03-31T10:40:59;94104.03;;;17.92;100.00
13314;BME280;6725;48.112;11.604;2023-03-31T10:43:49;94095.34;;;18.59;100.00
13314;BME280;6725;48.112;11.604;2023-03-31T10:46:15;94102.13;;;18.58;100.00
13314;BME280;6725;48.112;11.604;2023-03-31T10:48:41;94113.31;;;18.09;100.00
13314;BME280;6725;48.112;11.604;2023-03-31T10:51:18;94102.38;;;18.00;100.00
13314;BME280;6725;48.112;11.604;2023-03-31T10:53:48;94097.19;;;17.53;100.00
13314;BME280;6725;48.112;11.604;2023-03-31T10:56:52;94080.78;;;16.86;100.00
13314;BME280;6725;48.112;11.604;2023-03-31T11:04:41;94062.41;;;16.15;100.00
13314;BME280;6725;48.112;11.604;2023-03-31T11:15:35;94049.91;;;15.02;100.00
13314;BME280;6725;48.112;11.604;2023-03-31T11:20:40;94055.41;;;14.34;100.00
13314;BME280;6725;48.112;11.604;2023-03-31T11:26:00;94093.91;;;13.58;100.00
13314;BME280;6725;48.112;11.604;2023-03-31T11:28:32;94122.59;;;13.17;100.00
13314;BME280;6725;48.112;11.604;2023-03-31T11:36:40;93999.13;;;11.31;100.00
13314;BME280;6725;48.112;11.604;2023-03-31T11:39:29;93923.09;;;10.83;100.00
13314;BME280;6725;48.112;11.604;2023-03-31T11:42:02;93902.69;;;10.75;100.00
13314;BME280;6725;48.112;11.604;2023-03-31T11:44:38;93868.06;;;10.72;100.00
13314;BME280;6725;48.112;11.604;2023-03-31T11:47:08;93831.69;;;10.75;100.00
13314;BME280;6725;48.112;11.604;2023-03-31T11:49:40;93782.06;;;10.89;100.00
13314;BME280;6725;48.112;11.604;2023-03-31T11:52:17;93750.53;;;11.18;100.00
13314;BME280;6725;48.112;11.604;2023-03-31T11:59:54;93763.84;;;11.38;100.00
13314;BME280;6725;48.112;11.604;2023-03-31T12:02:35;93761.53;;;11.58;100.00
13314;BME280;6725;48.112;11.604;2023-03-31T12:05:05;93761.31;;;11.83;100.00
13314;BME280;6725;48.112;11.604;2023-03-31T12:10:30;93788.59;;;12.53;100.00
13314;BME280;6725;48.112;11.604;2023-03-31T12:13:08;93803.22;;;12.86;100.00
13314;BME280;6725;48.112;11.604;2023-03-31T12:15:53;93833.06;;;13.02;100.00
13314;BME280;6725;48.112;11.604;2023-03-31T12:18:28;93839.16;;;13.24;100.00
13314;BME280;6725;48.112;11.604;2023-03-31T12:21:01;93848.59;;;13.41;100.00
13314;BME280;6725;48.112;11.604;2023-03-31T12:23:32;93863.22;;;13.29;100.00
13314;BME280;6725;48.112;11.604;2023-03-31T12:26:17;93860.63;;;13.25;100.00
13314;BME280;6725;48.112;11.604;2023-03-31T12:28:50;93869.94;;;13.19;100.00
13314;BME280;6725;48.112;11.604;2023-03-31T12:31:20;93887.72;;;13.23;100.00
13314;BME280;6725;48.112;11.604;2023-03-31T12:33:56;93877.38;;;13.37;100.00
13314;BME280;6725;48.112;11.604;2023-03-31T12:39:30;93890.91;;;13.58;100.00
13314;BME280;6725;48.112;11.604;2023-03-31T12:45:12;93891.53;;;13.44;100.00
13314;BME280;6725;48.112;11.604;2023-03-31T12:55:37;93928.41;;;13.43;100.00
13314;BME280;6725;48.112;11.604;2023-03-31T13:03:47;93911.03;;;13.64;100.00
13314;BME280;6725;48.112;11.604;2023-03-31T13:09:02;93935.28;;;13.66;100.00
13314;BME280;6725;48.112;11.604;2023-03-31T13:13:58;93976.84;;;13.28;100.00
13314;BME280;6725;48.112;11.604;2023-03-31T13:16:25;93982.47;;;13.15;100.00
13314;BME280;6725;48.112;11.604;2023-03-31T13:18:52;94019.44;;;13.11;100.00
13314;BME280;6725;48.112;11.604;2023-03-31T13:21:18;94016.38;;;13.00;100.00
13314;BME280;6725;48.112;11.604;2023-03-31T13:23:44;94001.84;;;12.90;100.00
13314;BME280;6725;48.112;11.604;2023-03-31T13:34:43;93975.59;;;12.62;100.00
13314;BME280;6725;48.112;11.604;2023-03-31T13:42:50;93954.88;;;13.10;100.00
13314;BME280;6725;48.112;11.604;2023-03-31T13:45:26;93959.78;;;13.33;100.00
13314;BME280;6725;48.112;11.604;2023-03-31T13:59:28;93966.50;;;13.86;100.00
13314;BME280;6725;48.112;11.604;2023-03-31T14:02:10;93976.88;;;14.00;100.00
13314;BME280;6725;48.112;11.604;2023-03-31T14:07:43;93962.50;;;14.14;100.00
13314;BME280;6725;48.112;11.604;2023-03-31T14:10:29;93975.63;;;14.10;100.00
13314;BME280;6725;48.112;11.604;2023-03-31T14:13:13;93978.06;;;14.08;100.00
13314;BME280;6725;48.112;11.604;2023-03-31T14:18:09;93981.75;;;13.96;100.00
13314;BME280;6725;48.112;11.604;2023-03-31T14:23:42;93999.13;;;13.57;100.00
13314;BME280;6725;48.112;11.604;2023-03-31T14:29:03;94004.91;;;13.50;100.00
13314;BME280;6725;48.112;11.604;2023-03-31T14:31:58;94010.41;;;13.50;100.00
13314;BME280;6725;48.112;11.604;2023-03-31T14:34:40;94007.94;;;13.43;100.00
13314;BME280;6725;48.112;11.604;2023-03-31T14:37:14;94009.13;;;13.24;100.00
13314;BME280;6725;48.112;11.604;2023-03-31T14:39:56;93993.78;;;12.96;100.00
13314;BME280;6725;48.112;11.604;2023-03-31T14:42:28;94002.72;;;12.78;100.00
13314;BME280;6725;48.112;11.604;2023-03-31T14:45:03;94047.06;;;12.55;100.00
13314;BME280;6725;48.112;11.604;2023-03-31T14:47:29;94018.00;;;11.84;100.00
13314;BME280;6725;48.112;11.604;2023-03-31T14:50:12;94034.72;;;11.65;100.00
13314;BME280;6725;48.112;11.604;2023-03-31T14:52:38;94002.88;;;11.58;100.00
13314;BME280;6725;48.112;11.604;2023-03-31T14:55:05;94026.00;;;11.45;100.00
13314;BME280;6725;48.112;11.604;2023-03-31T14:57:37;94017.22;;;11.50;100.00
13314;BME280;6725;48.112;11.604;2023-03-31T15:00:06;94043.81;;;11.49;100.00
13314;BME280;6725;48.112;11.604;2023-03-31T15:02:40;94031.22;;;11.52;100.00
13314;BME280;6725;48.112;11.604;2023-03-31T15:05:28;93984.53;;;11.46;100.00
13314;BME280;6725;48.112;11.604;2023-03-31T15:07:59;93993.31;;;11.75;100.00
13314;BME280;6725;48.112;11.604;2023-03-31T15:10:31;93967.69;;;12.03;100.00
13314;BME280;6725;48.112;11.604;2023-03-31T15:12:57;93968.34;;;12.47;100.00
13314;BME280;6725;48.112;11.604;2023-03-31T15:15:23;93963.78;;;12.44;100.00
13314;BME280;6725;48.112;11.604;2023-03-31T15:17:50;93969.22;;;12.35;100.00
13314;BME280;6725;48.112;11.604;2023-03-31T15:20:34;93956.69;;;12.25;100.00
13314;BME280;6725;48.112;11.604;2023-03-31T15:23:03;93944.69;;;12.22;100.00
13314;BME280;6725;48.112;11.604;2023-03-31T15:25:36;93954.66;;;12.16;100.00
13314;BME280;6725;48.112;11.604;2023-03-31T15:28:05;93958.63;;;12.15;100.00
13314;BME280;6725;48.112;11.604;2023-03-31T15:30:34;93952.13;;;12.22;100.00
13314;BME280;6725;48.112;11.604;2023-03-31T15:32:59;93962.34;;;12.30;100.00
13314;BME280;6725;48.112;11.604;2023-03-31T15:35:29;93961.56;;;12.30;100.00
13314;BME280;6725;48.112;11.604;2023-03-31T15:37:58;93950.00;;;12.26;100.00
13314;BME280;6725;48.112;11.604;2023-03-31T15:40:29;93954.25;;;12.27;100.00
13314;BME280;6725;48.112;11.604;2023-03-31T15:42:58;93970.38;;;12.25;100.00
13314;BME280;6725;48.112;11.604;2023-03-31T15:45:53;93959.38;;;12.16;100.00